Time;durP1;ratioP1;P1;durP2;ratioP2;P2;SDS_P1;SDS_P2;PMS_P1;PMS_P2;Temp;Humidity;BMP_temperature;BMP_pressure;BME280_temperature;BME280_humidity;BME280_pressure;Samples;Min_cycle;Max_cycle;Signal;HPM_P1;HPM_P2
2022/06/29 00:00:23;;;;;;;7.53;5.43;;;13.20;99.90;;;;;;4992210;28;20450;-72
2022/06/29 00:02:51;;;;;;;9.38;6.35;;;13.30;99.90;;;;;;4994244;28;20041;-72
2022/06/29 00:05:23;;;;;;;7.10;5.80;;;13.30;99.90;;;;;;4992494;28;20030;-72
2022/06/29 00:07:52;;;;;;;10.20;5.68;;;13.40;99.90;;;;;;4992554;28;20546;-72
2022/06/29 00:10:20;;;;;;;7.82;5.38;;;13.40;99.90;;;;;;4993788;28;20026;-72
2022/06/29 00:12:48;;;;;;;10.60;5.68;;;13.30;99.90;;;;;;4993642;28;20022;-72
2022/06/29 00:15:17;;;;;;;6.95;5.30;;;13.50;99.90;;;;;;4993630;28;20022;-72
2022/06/29 00:17:44;;;;;;;11.07;6.18;;;13.50;99.90;;;;;;4993815;28;20051;-72
2022/06/29 00:20:13;;;;;;;8.50;5.57;;;13.60;99.90;;;;;;4992273;28;20105;-72
2022/06/29 00:22:44;;;;;;;8.43;5.20;;;13.70;99.90;;;;;;4993730;28;20018;-72
2022/06/29 00:25:13;;;;;;;7.55;4.88;;;13.80;99.90;;;;;;4993547;28;20026;-73
2022/06/29 00:27:41;;;;;;;8.25;4.85;;;13.80;99.90;;;;;;4992234;28;20034;-72
2022/06/29 00:30:09;;;;;;;10.68;4.78;;;13.80;99.90;;;;;;4993778;28;20029;-73
2022/06/29 00:32:37;;;;;;;5.75;3.90;;;13.80;99.90;;;;;;4992206;28;20035;-73
2022/06/29 00:35:06;;;;;;;7.35;4.50;;;13.80;99.90;;;;;;4992137;28;20058;-73
2022/06/29 00:37:33;;;;;;;7.60;3.70;;;13.90;99.90;;;;;;4992221;28;20030;-73
2022/06/29 00:40:02;;;;;;;7.13;4.03;;;14.00;99.90;;;;;;4993392;28;20368;-73
2022/06/29 00:42:31;;;;;;;5.20;3.90;;;14.00;99.90;;;;;;4993677;28;20390;-73
2022/06/29 00:44:59;;;;;;;5.75;3.35;;;14.10;99.90;;;;;;4992095;28;20033;-72
2022/06/29 00:47:27;;;;;;;12.13;3.13;;;14.10;99.90;;;;;;4991986;28;20077;-73
2022/06/29 00:49:56;;;;;;;4.82;2.58;;;14.20;99.90;;;;;;4992083;28;20027;-73
2022/06/29 00:52:29;;;;;;;4.65;2.67;;;14.20;99.90;;;;;;4993250;28;20026;-73
2022/06/29 00:55:02;;;;;;;4.72;2.33;;;14.40;99.90;;;;;;4994494;28;20022;-73
2022/06/29 00:57:30;;;;;;;6.75;3.78;;;14.50;99.90;;;;;;4997809;28;20023;-73
2022/06/29 01:00:00;;;;;;;4.45;2.60;;;14.60;99.90;;;;;;4995663;28;20434;-73
2022/06/29 01:02:32;;;;;;;6.15;3.05;;;14.70;99.90;;;;;;4995905;28;20025;-73
2022/06/29 01:04:59;;;;;;;6.47;2.97;;;14.80;99.90;;;;;;4997343;28;20018;-73
2022/06/29 01:07:30;;;;;;;5.47;2.42;;;14.90;99.90;;;;;;4997129;28;20027;-73
2022/06/29 01:09:58;;;;;;;3.15;1.20;;;15.00;99.90;;;;;;4997193;28;20082;-72
2022/06/29 01:12:26;;;;;;;4.68;1.25;;;15.00;99.90;;;;;;4996968;28;20022;-73
2022/06/29 01:14:53;;;;;;;4.32;1.35;;;15.00;99.90;;;;;;4995813;28;20109;-73
2022/06/29 01:17:22;;;;;;;7.03;1.33;;;15.20;99.90;;;;;;4995628;28;20073;-73
2022/06/29 01:19:50;;;;;;;4.15;1.30;;;15.20;99.90;;;;;;4995658;28;20467;-73
2022/06/29 01:22:22;;;;;;;3.20;1.05;;;15.20;99.90;;;;;;4996829;28;20023;-73
2022/06/29 01:24:51;;;;;;;7.07;1.38;;;15.20;99.90;;;;;;4995657;28;20402;-73
2022/06/29 01:27:20;;;;;;;1.75;1.10;;;15.30;99.90;;;;;;4995447;28;20122;-74
2022/06/29 01:29:47;;;;;;;4.82;1.10;;;15.40;99.90;;;;;;4995558;28;20451;-74
2022/06/29 01:32:15;;;;;;;3.50;1.27;;;15.50;99.90;;;;;;4996871;28;20050;-74
2022/06/29 01:34:43;;;;;;;1.42;0.77;;;15.60;99.90;;;;;;4996705;28;20093;-74
2022/06/29 01:37:11;;;;;;;1.52;0.80;;;15.70;99.90;;;;;;4996659;28;20030;-73
2022/06/29 01:39:39;;;;;;;3.88;0.80;;;15.80;99.90;;;;;;4996732;28;20029;-74
2022/06/29 01:42:07;;;;;;;4.43;0.88;;;16.00;99.90;;;;;;4996559;28;20018;-74
2022/06/29 01:44:36;;;;;;;1.48;0.80;;;16.00;99.90;;;;;;4995276;28;20031;-74
2022/06/29 01:47:04;;;;;;;2.38;0.90;;;16.20;99.90;;;;;;4995176;28;20022;-74
2022/06/29 01:49:32;;;;;;;2.10;0.50;;;16.30;99.90;;;;;;4995237;28;20022;-73
2022/06/29 01:51:59;;;;;;;4.43;1.02;;;16.40;99.90;;;;;;4996273;28;20114;-73
2022/06/29 01:54:27;;;;;;;2.47;0.47;;;16.70;99.90;;;;;;4994907;28;20033;-75
2022/06/29 01:56:54;;;;;;;4.15;0.60;;;16.80;99.90;;;;;;4994956;28;20029;-75
2022/06/29 01:59:22;;;;;;;2.75;0.60;;;16.90;99.90;;;;;;4994792;28;20073;-73
2022/06/29 02:01:52;;;;;;;2.88;0.60;;;16.90;99.90;;;;;;4996056;28;20053;-74
2022/06/29 02:04:19;;;;;;;5.25;1.02;;;16.90;99.90;;;;;;4994809;28;20041;-75
2022/06/29 02:06:47;;;;;;;3.20;0.68;;;16.90;99.90;;;;;;4993949;28;20030;-74
2022/06/29 02:09:14;;;;;;;1.88;0.65;;;16.90;99.90;;;;;;4994702;28;20117;-73
2022/06/29 02:11:42;;;;;;;3.42;0.50;;;16.80;99.90;;;;;;4994660;28;20033;-74
2022/06/29 02:14:09;;;;;;;1.92;0.52;;;16.90;99.90;;;;;;4995865;28;20027;-74
2022/06/29 02:16:37;;;;;;;2.85;0.57;;;17.00;99.90;;;;;;4996036;28;20036;-74
2022/06/29 02:19:04;;;;;;;2.50;0.52;;;17.10;99.90;;;;;;4996203;28;20022;-74
2022/06/29 02:21:32;;;;;;;2.10;0.30;;;17.20;99.90;;;;;;4994516;28;20031;-74
2022/06/29 02:23:59;;;;;;;2.28;0.38;;;17.30;99.90;;;;;;4994441;28;20038;-74
2022/06/29 02:26:26;;;;;;;2.72;0.40;;;17.20;99.90;;;;;;4995815;28;20109;-74
2022/06/29 02:28:54;;;;;;;2.63;0.20;;;17.30;99.90;;;;;;4994323;28;20030;-74
2022/06/29 02:36:52;;;;;;;1.33;0.40;;;17.20;99.90;;;;;;4995709;28;20029;-74
2022/06/29 02:39:19;;;;;;;2.60;0.50;;;17.10;99.90;;;;;;4994111;28;20022;-74
2022/06/29 02:41:47;;;;;;;4.32;0.50;;;17.10;99.90;;;;;;4994179;28;20491;-75
2022/06/29 02:44:14;;;;;;;4.15;0.52;;;17.10;99.90;;;;;;4994511;28;20077;-75
2022/06/29 02:46:41;;;;;;;1.02;0.30;;;17.20;99.90;;;;;;4995459;28;20438;-75
2022/06/29 02:49:09;;;;;;;2.33;0.45;;;17.20;99.90;;;;;;4995332;28;20026;-75
2022/06/29 02:51:36;;;;;;;1.83;0.38;;;17.20;99.90;;;;;;4993981;28;20394;-74
2022/06/29 02:54:03;;;;;;;1.70;0.40;;;17.20;99.90;;;;;;4993805;28;20022;-75
2022/06/29 02:56:31;;;;;;;1.27;0.32;;;17.30;99.90;;;;;;4995410;28;20109;-75
2022/06/29 02:58:58;;;;;;;4.20;0.85;;;17.30;99.90;;;;;;4995566;28;20027;-76
2022/06/29 03:01:26;;;;;;;2.60;0.40;;;17.30;99.90;;;;;;4993624;28;20384;-75
2022/06/29 03:03:53;;;;;;;1.88;0.38;;;17.40;99.90;;;;;;4993689;28;20073;-75
2022/06/29 03:06:20;;;;;;;3.22;1.02;;;17.40;99.90;;;;;;4993709;28;20537;-75
2022/06/29 03:08:48;;;;;;;4.95;1.50;;;17.40;99.90;;;;;;4995082;28;20145;-76
2022/06/29 03:11:15;;;;;;;2.30;0.60;;;17.20;99.90;;;;;;4994966;28;20034;-75
2022/06/29 03:13:42;;;;;;;4.13;1.05;;;17.10;99.90;;;;;;4993595;28;20565;-75
2022/06/29 03:16:10;;;;;;;3.60;0.70;;;17.20;99.90;;;;;;4994837;28;20018;-75
2022/06/29 03:18:37;;;;;;;1.55;0.40;;;17.10;99.90;;;;;;4993445;28;20018;-74
2022/06/29 03:21:04;;;;;;;3.47;1.20;;;17.20;99.90;;;;;;4994722;28;20260;-75
2022/06/29 03:23:32;;;;;;;1.88;0.85;;;17.30;99.90;;;;;;4995060;28;20363;-74
2022/06/29 03:26:00;;;;;;;2.58;0.65;;;17.30;99.90;;;;;;4993380;28;20031;-74
2022/06/29 03:28:27;;;;;;;1.63;0.60;;;17.30;99.90;;;;;;4994679;28;20022;-76
2022/06/29 03:30:55;;;;;;;2.97;0.90;;;17.40;99.90;;;;;;4993087;28;20076;-75
2022/06/29 03:33:22;;;;;;;1.88;0.55;;;17.40;99.90;;;;;;4994375;28;20109;-74
2022/06/29 03:35:49;;;;;;;1.83;0.50;;;17.30;99.90;;;;;;4994396;28;20029;-74
2022/06/29 03:38:17;;;;;;;1.38;0.40;;;17.10;99.90;;;;;;4994453;28;20439;-74
2022/06/29 03:40:44;;;;;;;1.08;0.40;;;17.00;99.90;;;;;;4993034;28;20046;-75
2022/06/29 03:43:11;;;;;;;2.15;0.57;;;16.90;99.90;;;;;;4994347;28;20023;-74
2022/06/29 03:45:39;;;;;;;1.73;0.77;;;16.80;99.90;;;;;;4992877;28;20030;-74
2022/06/29 03:48:07;;;;;;;1.00;0.40;;;16.70;99.90;;;;;;4994363;28;20070;-75
2022/06/29 03:50:34;;;;;;;4.60;0.60;;;16.60;99.90;;;;;;4992457;28;20066;-74
2022/06/29 03:53:01;;;;;;;1.95;0.40;;;16.60;99.90;;;;;;4992772;28;20037;-74
2022/06/29 03:55:29;;;;;;;2.70;0.80;;;16.70;99.90;;;;;;4992706;28;20446;-75
2022/06/29 03:57:56;;;;;;;1.85;0.50;;;16.80;99.90;;;;;;4994093;28;20014;-75
2022/06/29 04:00:23;;;;;;;1.60;0.40;;;16.90;99.90;;;;;;4993722;28;20034;-74
2022/06/29 04:02:51;;;;;;;1.60;0.45;;;16.90;99.90;;;;;;4994046;28;20030;-74
2022/06/29 04:05:18;;;;;;;2.42;0.50;;;17.00;99.90;;;;;;4993860;28;20057;-74
2022/06/29 04:07:45;;;;;;;1.95;0.40;;;17.20;99.90;;;;;;4994233;28;20053;-74
2022/06/29 04:10:13;;;;;;;2.30;0.40;;;17.20;99.90;;;;;;4992582;28;20030;-74
2022/06/29 04:12:40;;;;;;;1.60;0.50;;;17.20;99.90;;;;;;4993695;28;20049;-74
2022/06/29 04:15:08;;;;;;;3.38;0.45;;;17.30;99.90;;;;;;4993830;28;20026;-75
2022/06/29 04:17:35;;;;;;;2.38;0.50;;;17.20;99.90;;;;;;4993681;28;20022;-75
2022/06/29 04:20:05;;;;;;;2.33;0.60;;;17.10;99.90;;;;;;4992361;28;20030;-75
2022/06/29 04:22:32;;;;;;;2.63;0.47;;;17.00;99.90;;;;;;4993713;28;20058;-74
2022/06/29 04:25:00;;;;;;;2.85;0.93;;;17.00;99.90;;;;;;4993744;28;20442;-75
2022/06/29 04:27:27;;;;;;;1.50;0.40;;;17.00;99.90;;;;;;4993505;28;20030;-74
2022/06/29 04:29:55;;;;;;;3.28;0.60;;;16.90;99.90;;;;;;4993383;28;20109;-74
2022/06/29 04:32:22;;;;;;;1.80;0.55;;;16.80;99.90;;;;;;4992089;28;20109;-75
2022/06/29 04:34:50;;;;;;;3.40;0.55;;;16.80;99.90;;;;;;4994295;28;20077;-75
2022/06/29 04:37:17;;;;;;;1.58;0.40;;;16.70;99.90;;;;;;4993471;28;20386;-75
2022/06/29 04:39:44;;;;;;;1.83;0.40;;;16.70;99.90;;;;;;4993628;28;20050;-75
2022/06/29 04:42:12;;;;;;;2.03;0.47;;;16.70;99.90;;;;;;4992099;28;20027;-75
2022/06/29 04:44:39;;;;;;;1.98;0.40;;;16.80;99.90;;;;;;4993419;28;20030;-76
2022/06/29 04:47:06;;;;;;;2.10;0.32;;;16.80;99.90;;;;;;4993645;28;20467;-74
2022/06/29 04:49:34;;;;;;;4.30;0.65;;;16.80;99.90;;;;;;4993416;28;20026;-74
2022/06/29 04:52:01;;;;;;;2.58;0.50;;;16.80;99.90;;;;;;4991890;28;20033;-75
2022/06/29 04:54:28;;;;;;;1.58;0.43;;;16.90;99.90;;;;;;4991947;28;20509;-75
2022/06/29 04:56:56;;;;;;;2.92;0.40;;;16.90;99.90;;;;;;4991942;28;20030;-75
2022/06/29 04:59:23;;;;;;;1.48;0.20;;;16.80;99.90;;;;;;4993620;28;20029;-75
2022/06/29 05:01:50;;;;;;;1.00;0.40;;;16.70;99.90;;;;;;4991693;28;20042;-75
2022/06/29 05:04:20;;;;;;;1.83;0.50;;;16.60;99.90;;;;;;4991970;28;20052;-76
2022/06/29 05:06:47;;;;;;;2.30;0.43;;;16.50;99.90;;;;;;4993401;28;20059;-76
2022/06/29 05:09:15;;;;;;;3.28;0.63;;;16.40;99.90;;;;;;4993213;28;20041;-75
2022/06/29 05:11:42;;;;;;;2.03;0.40;;;16.30;99.90;;;;;;4991944;28;20029;-75
2022/06/29 05:14:10;;;;;;;3.70;0.50;;;16.20;99.90;;;;;;4993149;28;20057;-75
2022/06/29 05:16:38;;;;;;;2.78;0.45;;;16.10;99.90;;;;;;4993196;28;20105;-75
2022/06/29 05:19:05;;;;;;;2.63;0.45;;;16.10;99.90;;;;;;4991771;28;20054;-76
2022/06/29 05:21:36;;;;;;;1.65;0.50;;;16.00;99.90;;;;;;4993229;28;20045;-76
2022/06/29 05:24:05;;;;;;;2.80;0.45;;;16.00;99.90;;;;;;4990984;28;20018;-75
2022/06/29 05:26:34;;;;;;;1.55;0.73;;;15.90;99.90;;;;;;4991822;28;20035;-75
2022/06/29 05:29:02;;;;;;;0.88;0.30;;;15.90;99.90;;;;;;4991989;28;20023;-75
2022/06/29 05:31:31;;;;;;;2.58;0.40;;;15.80;99.90;;;;;;4991689;28;20475;-75
2022/06/29 05:33:58;;;;;;;1.83;0.40;;;15.80;99.90;;;;;;4991506;28;20052;-75
2022/06/29 05:36:25;;;;;;;1.20;0.22;;;15.70;99.90;;;;;;4991759;28;20496;-76
2022/06/29 05:38:52;;;;;;;2.92;0.45;;;15.70;99.90;;;;;;4992965;28;20467;-75
2022/06/29 05:41:20;;;;;;;3.97;0.50;;;15.60;99.90;;;;;;4994376;28;20021;-75
2022/06/29 05:43:51;;;;;;;1.05;0.38;;;15.60;99.90;;;;;;4996628;28;20027;-75
2022/06/29 05:46:22;;;;;;;2.10;0.70;;;15.50;99.90;;;;;;4997168;28;20153;-76
2022/06/29 05:48:49;;;;;;;2.28;0.40;;;15.50;99.90;;;;;;4995088;28;20390;-75
2022/06/29 05:51:16;;;;;;;3.22;0.77;;;15.40;99.90;;;;;;4996764;28;20018;-76
2022/06/29 05:53:44;;;;;;;4.65;0.70;;;15.30;99.90;;;;;;4995007;28;20117;-76
2022/06/29 05:56:11;;;;;;;1.55;0.40;;;15.20;99.90;;;;;;4996388;28;20020;-76
2022/06/29 05:58:39;;;;;;;1.10;0.40;;;15.20;99.90;;;;;;4994983;28;20034;-75
2022/06/29 06:01:09;;;;;;;0.80;0.30;;;15.10;99.90;;;;;;4996185;28;20054;-75
2022/06/29 06:03:37;;;;;;;3.97;0.60;;;15.10;99.90;;;;;;4994894;28;20088;-75
2022/06/29 06:06:05;;;;;;;1.98;0.50;;;15.00;99.90;;;;;;4996609;28;20495;-76
2022/06/29 06:08:32;;;;;;;2.17;0.47;;;14.90;99.90;;;;;;4995934;28;20022;-76
2022/06/29 06:11:01;;;;;;;1.70;0.68;;;14.90;99.90;;;;;;4994702;28;20065;-75
2022/06/29 06:13:28;;;;;;;1.60;0.40;;;14.80;99.90;;;;;;4995621;28;20487;-74
2022/06/29 06:15:55;;;;;;;1.92;0.40;;;14.80;99.90;;;;;;4995802;28;20058;-74
2022/06/29 06:18:23;;;;;;;1.98;0.70;;;14.70;99.90;;;;;;4994466;28;20080;-75
2022/06/29 06:20:50;;;;;;;2.85;0.43;;;14.70;99.90;;;;;;4996162;28;20026;-75
2022/06/29 06:23:17;;;;;;;1.02;0.30;;;14.70;99.90;;;;;;4996013;28;20030;-74
2022/06/29 06:25:45;;;;;;;2.40;0.40;;;14.60;99.90;;;;;;4995555;28;20067;-75
2022/06/29 06:28:12;;;;;;;2.53;0.43;;;14.60;99.90;;;;;;4994370;28;20023;-75
2022/06/29 06:30:39;;;;;;;1.33;0.32;;;14.60;99.90;;;;;;4994484;28;20478;-75
2022/06/29 06:33:06;;;;;;;1.75;0.40;;;14.50;99.90;;;;;;4995657;28;20026;-75
2022/06/29 06:35:34;;;;;;;3.90;0.63;;;14.50;99.90;;;;;;4995578;28;20127;-75
2022/06/29 06:38:01;;;;;;;1.63;0.32;;;14.50;99.90;;;;;;4995655;28;20022;-75
2022/06/29 06:43:15;;;;;;;2.05;0.50;;;14.40;99.90;;;;;;4995886;28;20053;-75
2022/06/29 06:45:42;;;;;;;2.40;0.70;;;14.30;99.90;;;;;;4995421;28;20022;-75
2022/06/29 06:48:10;;;;;;;4.95;1.38;;;14.30;99.90;;;;;;4995749;28;20391;-75
2022/06/29 06:50:37;;;;;;;2.50;0.70;;;14.20;99.90;;;;;;4995245;28;20034;-73
2022/06/29 06:53:04;;;;;;;2.00;0.47;;;14.10;99.90;;;;;;4993569;28;20027;-74
2022/06/29 06:55:32;;;;;;;2.58;0.80;;;14.10;99.90;;;;;;4995184;28;20379;-75
2022/06/29 06:58:01;;;;;;;2.03;0.50;;;14.00;99.90;;;;;;4993807;28;20075;-75
2022/06/29 07:00:29;;;;;;;1.85;0.50;;;13.90;99.90;;;;;;4994826;28;20442;-74
2022/06/29 07:02:57;;;;;;;1.00;0.40;;;13.90;99.90;;;;;;4993793;28;20072;-75
2022/06/29 07:05:25;;;;;;;3.42;0.90;;;13.80;99.90;;;;;;4993591;28;20026;-75
2022/06/29 07:07:52;;;;;;;2.40;0.65;;;13.80;99.90;;;;;;4994820;28;20070;-74
2022/06/29 07:10:20;;;;;;;2.85;0.68;;;13.70;99.90;;;;;;4993482;28;20027;-74
2022/06/29 07:12:47;;;;;;;1.25;0.50;;;13.60;99.90;;;;;;4993281;28;20030;-74
2022/06/29 07:15:14;;;;;;;2.75;0.80;;;13.50;99.90;;;;;;4993465;28;20033;-74
2022/06/29 07:17:42;;;;;;;2.90;0.60;;;13.50;99.90;;;;;;4993414;28;20490;-74
2022/06/29 07:20:10;;;;;;;2.17;0.60;;;13.40;99.90;;;;;;4993424;28;20022;-74
2022/06/29 07:22:37;;;;;;;1.05;0.47;;;13.30;99.90;;;;;;4994758;28;20022;-74
2022/06/29 07:25:05;;;;;;;1.40;0.55;;;13.20;99.90;;;;;;4993474;28;20027;-74
2022/06/29 07:27:32;;;;;;;1.70;0.60;;;13.20;99.90;;;;;;4993473;28;20026;-74
2022/06/29 07:29:59;;;;;;;3.72;0.70;;;13.10;99.90;;;;;;4994742;28;20121;-74
2022/06/29 07:32:27;;;;;;;1.67;0.65;;;13.10;99.90;;;;;;4994608;28;20375;-73
2022/06/29 07:34:54;;;;;;;1.85;0.60;;;13.10;99.90;;;;;;4994626;28;20022;-75
2022/06/29 07:37:21;;;;;;;2.30;0.77;;;13.10;99.90;;;;;;4993333;28;20113;-74
2022/06/29 07:39:49;;;;;;;1.35;0.70;;;13.00;99.90;;;;;;4993092;28;20509;-75
2022/06/29 07:42:16;;;;;;;1.65;1.08;;;13.10;99.90;;;;;;4994365;28;20102;-74
2022/06/29 07:44:43;;;;;;;2.05;1.30;;;13.00;99.90;;;;;;4993122;28;20026;-74
2022/06/29 07:47:10;;;;;;;2.67;0.90;;;13.00;99.90;;;;;;4994472;28;20029;-74
2022/06/29 07:49:38;;;;;;;2.50;0.80;;;12.90;99.90;;;;;;4994667;28;20049;-76
2022/06/29 07:52:05;;;;;;;1.40;0.98;;;13.00;99.90;;;;;;4994298;28;20394;-74
2022/06/29 07:54:33;;;;;;;1.88;1.30;;;12.90;99.90;;;;;;4994321;28;20086;-75
2022/06/29 07:57:00;;;;;;;3.50;1.20;;;12.90;99.90;;;;;;4994267;28;20084;-74
2022/06/29 07:59:29;;;;;;;2.72;1.20;;;12.80;99.90;;;;;;4994031;28;20023;-74
2022/06/29 08:01:57;;;;;;;3.97;1.50;;;12.80;99.90;;;;;;4992667;28;20399;-75
2022/06/29 08:04:25;;;;;;;2.65;1.27;;;12.80;99.90;;;;;;4993426;28;20041;-75
2022/06/29 08:06:53;;;;;;;2.95;1.25;;;12.80;99.90;;;;;;4994025;28;20033;-75
2022/06/29 08:09:23;;;;;;;4.40;1.77;;;12.70;99.90;;;;;;4991961;28;20038;-75
2022/06/29 08:11:51;;;;;;;3.28;1.80;;;12.70;99.90;;;;;;4992544;28;20041;-76
2022/06/29 08:14:19;;;;;;;3.47;1.77;;;12.70;99.90;;;;;;4976408;28;20026;-75
2022/06/29 08:16:46;;;;;;;3.78;1.70;;;12.70;99.90;;;;;;4993951;28;20088;-75
2022/06/29 08:19:13;;;;;;;4.25;2.03;;;12.70;99.90;;;;;;4992393;28;20022;-74
2022/06/29 08:21:41;;;;;;;3.28;2.00;;;12.70;99.90;;;;;;4992444;28;20506;-75
2022/06/29 08:24:08;;;;;;;2.55;2.13;;;12.70;99.90;;;;;;4993808;28;20052;-75
2022/06/29 08:26:36;;;;;;;6.43;3.53;;;12.70;99.90;;;;;;4993679;28;20027;-75
2022/06/29 08:29:03;;;;;;;4.47;2.95;;;12.60;99.90;;;;;;4992294;28;20117;-74
2022/06/29 08:31:31;;;;;;;6.35;2.63;;;12.60;99.90;;;;;;4993713;28;20081;-74
2022/06/29 08:34:00;;;;;;;6.38;2.60;;;12.60;99.90;;;;;;4993880;28;20382;-74
2022/06/29 08:36:27;;;;;;;3.70;2.40;;;12.60;99.90;;;;;;4992240;28;20030;-75
2022/06/29 08:38:55;;;;;;;6.68;2.70;;;12.60;99.90;;;;;;4992184;28;20080;-74
2022/06/29 08:41:22;;;;;;;3.70;2.30;;;12.50;99.90;;;;;;4992188;28;20018;-75
2022/06/29 08:43:50;;;;;;;3.50;1.95;;;12.50;99.90;;;;;;4993081;28;20429;-74
2022/06/29 08:46:18;;;;;;;3.45;2.30;;;12.50;99.90;;;;;;4992260;28;20033;-74
2022/06/29 08:48:45;;;;;;;4.38;1.98;;;12.50;99.90;;;;;;4993561;28;20490;-75
2022/06/29 08:51:14;;;;;;;4.25;2.10;;;12.50;99.90;;;;;;4993509;28;20030;-74
2022/06/29 08:53:42;;;;;;;3.92;1.90;;;12.40;99.90;;;;;;4992119;28;20030;-75
2022/06/29 08:56:10;;;;;;;3.75;2.25;;;12.40;99.90;;;;;;4993448;28;20022;-74
2022/06/29 08:58:41;;;;;;;5.10;2.15;;;12.40;99.90;;;;;;4991873;28;20108;-75
2022/06/29 09:01:09;;;;;;;3.30;2.50;;;12.40;99.90;;;;;;4991867;28;20567;-74
2022/06/29 09:03:36;;;;;;;5.80;2.70;;;12.40;99.90;;;;;;4993657;28;20093;-75
2022/06/29 09:06:06;;;;;;;5.70;2.58;;;12.30;99.90;;;;;;4993860;28;20058;-75
2022/06/29 09:08:34;;;;;;;3.10;2.30;;;12.20;99.90;;;;;;4993804;28;20478;-74
2022/06/29 09:11:23;;;;;;;3.83;2.28;;;12.20;99.90;;;;;;4993350;28;20058;-74
2022/06/29 09:14:12;;;;;;;4.35;2.20;;;12.10;99.90;;;;;;4993321;28;20027;-75
2022/06/29 09:17:00;;;;;;;3.67;2.13;;;12.10;99.90;;;;;;4996936;28;20022;-74
2022/06/29 09:19:36;;;;;;;2.75;2.28;;;12.10;99.90;;;;;;4997190;28;20129;-74
2022/06/29 09:22:04;;;;;;;4.88;2.40;;;12.10;99.90;;;;;;4995765;28;20027;-74
2022/06/29 09:24:33;;;;;;;4.22;1.70;;;12.10;99.90;;;;;;4996970;28;20033;-74
2022/06/29 09:27:03;;;;;;;3.67;2.05;;;12.10;99.90;;;;;;4995634;28;20030;-74
2022/06/29 09:29:33;;;;;;;3.28;2.15;;;12.10;99.90;;;;;;4996892;28;20026;-74
2022/06/29 09:32:06;;;;;;;3.30;1.73;;;12.20;99.90;;;;;;4996864;28;20026;-74
2022/06/29 09:34:41;;;;;;;3.88;1.50;;;12.10;99.90;;;;;;4996754;28;20022;-74
2022/06/29 09:37:16;;;;;;;2.60;1.58;;;12.10;99.90;;;;;;4997008;28;20023;-74
2022/06/29 09:39:50;;;;;;;2.85;1.83;;;12.10;99.90;;;;;;4996923;28;20098;-76
2022/06/29 09:42:27;;;;;;;2.60;1.30;;;12.10;99.90;;;;;;4997079;28;20073;-75
2022/06/29 09:44:55;;;;;;;3.20;1.73;;;12.10;99.90;;;;;;4997029;28;20054;-76
2022/06/29 09:47:23;;;;;;;2.63;1.75;;;12.10;99.90;;;;;;4996944;28;20030;-77
2022/06/29 09:49:56;;;;;;;4.20;1.80;;;12.10;99.90;;;;;;4995590;28;20097;-77
2022/06/29 09:52:24;;;;;;;3.97;1.80;;;12.10;99.90;;;;;;4997016;28;20019;-79
2022/06/29 09:55:00;;;;;;;3.50;1.48;;;12.10;99.90;;;;;;4996870;28;20034;-78
2022/06/29 09:57:31;;;;;;;3.20;1.65;;;12.10;99.90;;;;;;4996870;28;20096;-79
2022/06/29 10:02:51;;;;;;;5.90;1.70;;;12.00;99.90;;;;;;4997032;28;20044;-79
2022/06/29 10:05:28;;;;;;;4.28;1.88;;;12.10;99.90;;;;;;4995289;28;20030;-78
2022/06/29 10:07:56;;;;;;;4.20;2.15;;;12.00;99.90;;;;;;4995004;28;20036;-77
2022/06/29 10:10:27;;;;;;;6.63;2.50;;;12.10;99.90;;;;;;4995111;28;20022;-78
2022/06/29 10:16:00;;;;;;;4.55;2.13;;;12.20;99.90;;;;;;4996483;28;20462;-80
2022/06/29 10:18:59;;;;;;;3.72;2.28;;;12.20;99.90;;;;;;4996298;28;20163;-78
2022/06/29 10:21:31;;;;;;;5.20;2.33;;;12.20;99.90;;;;;;4996050;28;20495;-77
2022/06/29 10:24:00;;;;;;;5.13;2.63;;;12.10;99.90;;;;;;4996012;28;20475;-78
2022/06/29 10:26:31;;;;;;;7.22;2.90;;;12.00;99.90;;;;;;4995384;28;20026;-79
2022/06/29 10:29:18;;;;;;;4.90;2.03;;;12.10;99.90;;;;;;4994694;28;20096;-77
2022/06/29 10:31:53;;;;;;;3.25;1.75;;;12.10;99.90;;;;;;4983166;28;20046;-77
2022/06/29 10:34:35;;;;;;;3.92;2.00;;;12.10;99.90;;;;;;4995881;28;20097;-77
2022/06/29 10:37:21;;;;;;;3.83;2.38;;;12.10;99.90;;;;;;4996118;28;20527;-78
2022/06/29 10:39:52;;;;;;;5.10;2.03;;;12.10;99.90;;;;;;4996446;28;20486;-78
2022/06/29 10:45:27;;;;;;;4.32;1.90;;;12.10;99.90;;;;;;4995965;28;20032;-79
2022/06/29 10:47:58;;;;;;;3.20;1.85;;;12.10;99.90;;;;;;4996422;28;20422;-78
2022/06/29 10:50:32;;;;;;;3.40;2.15;;;12.10;99.90;;;;;;4994321;28;20479;-77
2022/06/29 10:53:07;;;;;;;2.97;1.90;;;12.10;99.90;;;;;;4995477;28;20026;-76
2022/06/29 10:55:39;;;;;;;3.50;1.70;;;12.10;99.90;;;;;;4994259;28;20114;-77
2022/06/29 10:58:07;;;;;;;3.58;1.80;;;12.00;99.90;;;;;;4993616;28;20445;-77
2022/06/29 11:00:40;;;;;;;3.63;2.13;;;12.00;99.90;;;;;;4993984;28;20137;-78
2022/06/29 11:03:14;;;;;;;5.60;2.08;;;12.10;99.90;;;;;;4994177;28;20085;-78
2022/06/29 11:14:03;;;;;;;2.60;1.98;;;12.10;99.90;;;;;;4996571;28;20029;-77
2022/06/29 11:16:34;;;;;;;3.95;1.70;;;12.10;99.90;;;;;;4996431;28;20069;-78
2022/06/29 11:19:01;;;;;;;3.17;1.70;;;12.10;99.90;;;;;;4995472;28;20430;-77
2022/06/29 11:21:29;;;;;;;5.47;1.60;;;12.00;99.90;;;;;;4994862;28;20050;-76
2022/06/29 11:24:04;;;;;;;2.60;1.65;;;12.10;99.90;;;;;;4993492;28;20368;-76
2022/06/29 11:26:34;;;;;;;4.68;2.03;;;12.20;99.90;;;;;;4995563;28;20347;-76
2022/06/29 11:29:03;;;;;;;4.13;2.00;;;12.10;99.90;;;;;;4995595;28;20036;-75
2022/06/29 11:31:30;;;;;;;4.28;2.15;;;12.00;99.90;;;;;;4995120;28;20032;-76
2022/06/29 11:33:58;;;;;;;4.60;2.47;;;12.00;99.90;;;;;;4995141;28;20026;-76
2022/06/29 11:36:28;;;;;;;6.32;2.00;;;12.00;99.90;;;;;;4995878;28;20150;-76
2022/06/29 11:39:09;;;;;;;4.43;1.97;;;11.90;99.90;;;;;;4993214;28;20049;-77
2022/06/29 11:44:27;;;;;;;2.05;1.48;;;11.90;99.90;;;;;;4995019;28;20025;-77
2022/06/29 11:46:56;;;;;;;2.97;1.70;;;11.90;99.90;;;;;;4994574;28;20032;-78
2022/06/29 11:49:39;;;;;;;2.25;1.83;;;11.90;99.90;;;;;;4993257;28;20117;-77
2022/06/29 11:52:12;;;;;;;5.68;1.88;;;11.90;99.90;;;;;;4993119;28;20121;-78
2022/06/29 11:54:43;;;;;;;2.70;1.85;;;12.00;99.90;;;;;;4994885;28;20406;-78
2022/06/29 11:57:14;;;;;;;3.88;2.05;;;12.00;99.90;;;;;;4993142;28;20027;-77
2022/06/29 11:59:44;;;;;;;2.38;1.67;;;12.10;99.90;;;;;;4992992;28;20033;-77
2022/06/29 12:02:13;;;;;;;3.30;1.77;;;12.20;99.90;;;;;;4993085;28;20054;-77
2022/06/29 12:04:42;;;;;;;2.97;2.00;;;12.20;99.90;;;;;;4994359;28;20028;-78
2022/06/29 12:07:17;;;;;;;3.03;1.63;;;12.20;99.90;;;;;;4994448;28;20044;-78
2022/06/29 12:09:45;;;;;;;3.60;1.60;;;12.20;99.90;;;;;;4994450;28;20380;-77
2022/06/29 12:12:13;;;;;;;3.22;1.85;;;12.30;99.90;;;;;;4992582;28;20026;-77
2022/06/29 12:14:41;;;;;;;2.92;1.70;;;12.30;99.90;;;;;;4994600;28;20367;-77
2022/06/29 12:17:10;;;;;;;3.20;1.77;;;12.30;99.90;;;;;;4994105;28;20022;-77
2022/06/29 12:19:40;;;;;;;3.13;1.60;;;12.40;99.90;;;;;;4993946;28;20104;-77
2022/06/29 12:22:08;;;;;;;2.50;1.50;;;12.30;99.90;;;;;;4992753;28;20030;-77
2022/06/29 12:24:36;;;;;;;3.13;1.65;;;12.40;99.90;;;;;;4993920;28;20033;-76
2022/06/29 12:27:04;;;;;;;3.92;1.67;;;12.30;99.90;;;;;;4992641;28;20505;-77
2022/06/29 12:29:31;;;;;;;2.80;1.60;;;12.30;99.90;;;;;;4993862;28;20383;-76
2022/06/29 12:31:59;;;;;;;2.60;1.48;;;12.40;99.90;;;;;;4993758;28;20029;-77
2022/06/29 12:34:26;;;;;;;3.67;1.70;;;12.40;99.90;;;;;;4992500;28;20026;-76
2022/06/29 12:36:54;;;;;;;3.42;1.50;;;12.30;99.90;;;;;;4994328;28;20022;-76
2022/06/29 12:39:21;;;;;;;2.85;1.35;;;12.30;99.90;;;;;;4994497;28;20023;-77
2022/06/29 12:41:48;;;;;;;3.88;1.40;;;12.30;99.90;;;;;;4992474;28;20029;-76
2022/06/29 12:44:15;;;;;;;2.55;1.60;;;12.20;99.90;;;;;;4993822;28;20026;-77
2022/06/29 12:46:43;;;;;;;3.03;1.35;;;12.30;99.90;;;;;;4993829;28;20110;-77
2022/06/29 12:49:10;;;;;;;3.10;1.85;;;12.30;99.90;;;;;;4993689;28;20027;-77
2022/06/29 12:51:37;;;;;;;2.38;1.52;;;12.20;99.90;;;;;;4997310;28;20026;-76
2022/06/29 12:54:05;;;;;;;2.67;1.42;;;12.30;99.90;;;;;;4996277;28;20402;-76
2022/06/29 12:56:32;;;;;;;5.50;1.55;;;12.20;99.90;;;;;;4996513;28;20394;-75
2022/06/29 12:58:59;;;;;;;2.03;1.50;;;12.20;99.90;;;;;;4997584;28;20034;-76
2022/06/29 13:01:27;;;;;;;2.58;1.33;;;12.20;99.90;;;;;;4995921;28;20057;-76
2022/06/29 13:03:54;;;;;;;2.53;1.50;;;12.10;99.90;;;;;;4997491;28;20023;-75
2022/06/29 13:06:21;;;;;;;2.22;1.10;;;12.20;99.90;;;;;;4997455;28;20101;-75
2022/06/29 13:08:49;;;;;;;3.63;1.42;;;12.10;99.90;;;;;;4997467;28;20076;-74
2022/06/29 13:11:16;;;;;;;2.30;1.50;;;12.00;99.90;;;;;;4996016;28;20030;-75
2022/06/29 13:13:43;;;;;;;2.50;1.70;;;12.10;99.90;;;;;;4996451;28;20041;-75
2022/06/29 13:16:11;;;;;;;3.58;1.45;;;12.00;99.90;;;;;;4997270;28;20026;-75
2022/06/29 13:18:38;;;;;;;2.95;1.83;;;12.10;99.90;;;;;;4997228;28;20018;-76
2022/06/29 13:21:06;;;;;;;5.15;1.63;;;12.00;99.90;;;;;;4997329;28;20097;-75